This is the latest recevied weather packets stored in our database for station/object TA3MHA. If no packets are shown the sender has not sent any weather packets the latest 10 day(s).
| Time | Temp. | Humidity | Pressure | Rain* | Wind** | Luminosity | Snow |
|---|---|---|---|---|---|---|---|
| 1777553100 | 22.22° C | 47% | - | 0 mm | - | 340 W/m² | - |
| 1777552800 | 21.67° C | 48% | - | 0 mm | - | 627 W/m² | - |
| 1777552501 | 21.67° C | 48% | - | 0 mm | - | 430 W/m² | - |
| 1777552200 | 21.67° C | 47% | - | 0 mm | - | 524 W/m² | - |
| 1777551900 | 22.22° C | 46% | - | 0 mm | - | 366 W/m² | - |
| 1777551601 | 22.78° C | 44% | - | 0 mm | - | 699 W/m² | - |
| 1777551300 | 21.67° C | 46% | - | 0 mm | - | 724 W/m² | - |
| 1777551000 | 22.78° C | 44% | - | 0 mm | - | 385 W/m² | - |
| 1777550701 | 22.22° C | 45% | - | 0 mm | - | 726 W/m² | - |
| 1777550401 | 21.67° C | 46% | - | 0 mm | - | 728 W/m² | - |
| 1777550100 | 21.67° C | 47% | - | 0 mm | - | 737 W/m² | - |
| 1777549800 | 21.67° C | 47% | - | 0 mm | - | 748 W/m² | - |
| 1777549500 | 22.22° C | 45% | - | 0 mm | - | 767 W/m² | - |
| 1777549200 | 21.67° C | 48% | - | 0 mm | - | 764 W/m² | - |
| 1777548901 | 21.67° C | 47% | - | 0 mm | - | 768 W/m² | - |
| 1777548600 | 21.67° C | 48% | - | 0 mm | - | 778 W/m² | - |
| 1777548301 | 22.22° C | 47% | - | 0 mm | - | 780 W/m² | - |
| 1777548000 | 22.22° C | 44% | - | 0 mm | - | 789 W/m² | - |
| 1777547700 | 21.67° C | 47% | - | 0 mm | - | 792 W/m² | - |
| 1777547400 | 21.67° C | 47% | - | 0 mm | - | 798 W/m² | - |
| 1777547100 | 21.67° C | 46% | - | 0 mm | - | 807 W/m² | - |
| 1777546800 | 22.22° C | 44% | - | 0 mm | - | 810 W/m² | - |
| 1777546500 | 22.22° C | 45% | - | 0 mm | - | 814 W/m² | - |
| 1777546200 | 21.67° C | 45% | - | 0 mm | - | 820 W/m² | - |
| 1777545900 | 21.11° C | 45% | - | 0 mm | - | 824 W/m² | - |
* Rain latest hour (hover to see other rain measurements)
** Current wind speed in m/s (hover to see current wind gust speed)